Time;durP1;ratioP1;P1;durP2;ratioP2;P2;SDS_P1;SDS_P2;PMS_P1;PMS_P2;Temp;Humidity;BMP_temperature;BMP_pressure;BME280_temperature;BME280_humidity;BME280_pressure;Samples;Min_cycle;Max_cycle;Signal;HPM_P1;HPM_P2
2022/02/02 00:04:55;;;;;;;;;9.25;7.75;;;;;11.15;75.97;101720.09;5113069;27;45124;-76
2022/02/02 00:09:54;;;;;;;;;7.50;7.25;;;;;11.14;76.21;101706.88;5108308;27;44900;-75
2022/02/02 00:12:35;;;;;;;;;10.50;9.00;;;;;10.93;76.03;101669.91;5111319;27;45258;-75
2022/02/02 00:15:50;;;;;;;;;12.00;11.00;;;;;10.82;76.04;101645.72;5103393;27;45986;-75
2022/02/02 00:18:02;;;;;;;;;9.00;8.75;;;;;11.10;76.23;101700.56;5096762;27;45657;-76
2022/02/02 00:20:34;;;;;;;;;9.00;6.75;;;;;10.96;75.95;101685.84;5107733;27;45042;-75
2022/02/02 00:23:02;;;;;;;;;7.00;7.00;;;;;11.04;76.34;101695.91;5111301;27;45257;-76
2022/02/02 00:25:35;;;;;;;;;11.00;9.75;;;;;10.55;76.00;101613.75;5095022;27;45368;-75
2022/02/02 00:28:03;;;;;;;;;11.00;9.75;;;;;11.25;76.13;101764.44;5112610;27;45559;-75
2022/02/02 00:30:34;;;;;;;;;9.50;7.25;;;;;10.58;76.13;101640.16;5126069;27;45263;-75
2022/02/02 00:35:38;;;;;;;;;10.00;8.50;;;;;11.21;76.16;101744.06;5100623;27;45165;-75
2022/02/02 00:38:04;;;;;;;;;9.50;8.50;;;;;10.77;76.14;101663.91;5093221;27;45709;-75
2022/02/02 00:40:29;;;;;;;;;8.75;8.00;;;;;10.59;76.08;101640.28;5093088;27;45188;-75
2022/02/02 00:42:55;;;;;;;;;10.50;9.75;;;;;10.63;76.02;101635.13;5101946;27;44954;-75
2022/02/02 00:45:21;;;;;;;;;9.00;8.00;;;;;10.95;76.10;101695.47;5098446;27;46030;-76
2022/02/02 00:47:51;;;;;;;;;8.50;7.25;;;;;10.94;75.98;101695.41;5108746;27;45409;-75
2022/02/02 00:50:17;;;;;;;;;9.00;8.75;;;;;10.85;76.05;101688.84;5098354;27;45348;-75
2022/02/02 00:52:43;;;;;;;;;10.00;9.75;;;;;10.89;75.99;101700.44;5102837;27;45088;-76
2022/02/02 00:55:09;;;;;;;;;11.25;10.50;;;;;10.75;75.99;101680.44;5102331;27;45244;-75
2022/02/02 00:57:34;;;;;;;;;8.75;8.75;;;;;10.82;76.10;101715.00;5093661;27;45062;-76
2022/02/02 01:00:00;;;;;;;;;8.75;8.75;;;;;10.93;76.18;101733.91;5110318;27;45023;-75
2022/02/02 01:02:25;;;;;;;;;10.75;9.00;;;;;10.76;76.33;101724.31;5101003;27;45212;-75
2022/02/02 01:04:51;;;;;;;;;6.25;6.25;;;;;10.19;76.33;101646.94;5107453;27;45901;-75
2022/02/02 01:07:27;;;;;;;;;11.00;9.00;;;;;10.58;76.76;101713.78;5108794;27;45205;-75
2022/02/02 01:12:45;;;;;;;;;11.25;10.00;;;;;10.65;76.80;101749.19;5092945;27;45080;-75
2022/02/02 01:28:24;;;;;;;;;12.75;10.00;;;;;10.43;76.60;101652.56;5094132;27;45278;-75
2022/02/02 01:30:50;;;;;;;;;6.50;6.50;;;;;10.95;76.49;101731.38;5095389;27;45059;-76
2022/02/02 01:33:16;;;;;;;;;6.25;6.00;;;;;10.65;76.21;101675.56;5092183;27;45035;-75
2022/02/02 01:35:43;;;;;;;;;2.75;2.75;;;;;10.78;76.33;101691.09;5108072;27;45153;-75
2022/02/02 01:38:08;;;;;;;;;7.75;7.00;;;;;10.85;76.39;101709.00;5109331;27;45625;-75
2022/02/02 01:40:39;;;;;;;;;4.50;4.50;;;;;10.50;76.21;101644.19;5112109;27;44913;-75
2022/02/02 01:43:09;;;;;;;;;8.25;6.75;;;;;11.03;76.17;101741.47;5101247;27;45002;-75
2022/02/02 01:45:46;;;;;;;;;9.25;9.25;;;;;11.17;76.05;101757.88;5094980;27;46038;-75
2022/02/02 01:48:22;;;;;;;;;11.25;10.00;;;;;11.00;76.22;101720.25;5092067;27;45093;-76
2022/02/02 01:55:42;;;;;;;;;6.25;6.00;;;;;11.07;75.98;101742.50;5091738;27;45601;-76
2022/02/02 02:00:54;;;;;;;;;5.75;5.75;;;;;10.96;76.14;101725.28;5103855;27;45023;-75
2022/02/02 02:03:20;;;;;;;;;9.00;8.50;;;;;10.99;75.99;101736.88;5097265;27;45030;-76
2022/02/02 02:05:45;;;;;;;;;11.25;8.50;;;;;11.01;76.46;101745.72;5090096;27;46089;-75
2022/02/02 02:08:11;;;;;;;;;9.00;8.50;;;;;10.88;76.24;101713.50;5091466;27;44949;-75
2022/02/02 02:10:36;;;;;;;;;8.00;6.75;;;;;10.88;76.18;101718.75;5091290;27;45066;-76
2022/02/02 02:13:14;;;;;;;;;7.50;7.25;;;;;11.01;76.10;101739.56;5092590;27;45176;-75
2022/02/02 02:15:41;;;;;;;;;10.25;9.75;;;;;10.97;76.17;101722.72;5090988;27;45777;-76
2022/02/02 02:18:07;;;;;;;;;7.00;6.25;;;;;10.80;76.00;101695.63;5110028;27;45596;-75
2022/02/02 02:20:32;;;;;;;;;9.75;7.25;;;;;10.30;75.97;101609.94;5102947;27;45214;-76
2022/02/02 02:22:58;;;;;;;;;9.25;9.25;;;;;11.00;76.07;101748.28;5104546;27;45303;-76
2022/02/02 02:25:26;;;;;;;;;8.50;8.00;;;;;10.85;76.19;101707.25;5106890;27;45766;-75
2022/02/02 02:27:54;;;;;;;;;11.00;10.00;;;;;11.27;76.21;101775.03;5101018;27;45714;-76
2022/02/02 02:30:40;;;;;;;;;10.75;8.75;;;;;10.94;76.16;101719.06;5105434;27;45083;-75
2022/02/02 02:57:19;;;;;;;;;14.00;13.50;;;;;11.05;76.54;101729.28;5110422;27;45250;-76
2022/02/02 03:00:07;;;;;;;;;12.50;11.25;;;;;10.93;76.43;101701.47;5113360;27;45537;-75
2022/02/02 03:35:18;;;;;;;;;9.00;8.00;;;;;10.96;76.28;101701.63;5101546;27;45080;-75
2022/02/02 03:51:44;;;;;;;;;10.00;10.00;;;;;11.02;76.01;101720.31;5101684;27;45726;-75
2022/02/02 04:06:59;;;;;;;;;7.50;6.00;;;;;11.34;75.98;101774.50;5106865;27;45315;-75
2022/02/02 04:09:26;;;;;;;;;7.75;7.75;;;;;11.37;76.04;101778.16;5104871;27;45577;-75
2022/02/02 04:12:50;;;;;;;;;11.00;10.75;;;;;10.64;76.02;101656.28;5109476;27;45309;-75
2022/02/02 05:00:48;;;;;;;;;9.75;9.25;;;;;10.77;76.40;101729.63;5096594;27;45018;-75
2022/02/02 05:05:46;;;;;;;;;9.75;7.75;;;;;10.28;76.43;101674.63;5098729;27;45154;-76
2022/02/02 05:18:41;;;;;;;;;10.75;10.75;;;;;10.51;77.29;101769.50;5096269;27;45217;-75
2022/02/02 05:52:36;;;;;;;;;2.00;2.00;;;;;9.86;77.92;101702.19;5093169;27;45746;-75
2022/02/02 05:55:03;;;;;;;;;3.00;3.00;;;;;9.90;77.93;101705.84;5094065;27;45264;-75
2022/02/02 05:57:32;;;;;;;;;2.75;2.00;;;;;10.61;77.82;101818.19;5098816;27;46513;-76
2022/02/02 05:59:58;;;;;;;;;2.25;1.75;;;;;10.11;77.74;101729.72;5089481;27;45458;-75
2022/02/02 06:02:31;;;;;;;;;2.75;2.75;;;;;10.67;77.78;101818.50;5089140;27;45860;-75
2022/02/02 06:05:03;;;;;;;;;2.00;2.00;;;;;10.71;77.70;101826.63;5092800;27;45552;-75
2022/02/02 06:07:32;;;;;;;;;2.25;2.25;;;;;10.25;77.54;101739.28;5095039;27;45557;-75
2022/02/02 06:09:58;;;;;;;;;3.00;3.00;;;;;10.57;77.58;101783.84;5095042;27;46515;-76
2022/02/02 06:12:24;;;;;;;;;3.75;3.50;;;;;10.35;77.34;101738.03;5094012;27;45307;-75
2022/02/02 06:14:51;;;;;;;;;2.00;2.00;;;;;10.93;77.33;101823.34;5085898;27;45308;-75
2022/02/02 06:17:18;;;;;;;;;3.00;3.00;;;;;10.70;77.22;101790.66;5094360;27;46740;-76
2022/02/02 06:19:44;;;;;;;;;4.00;3.00;;;;;10.24;77.05;101706.81;5088084;27;45723;-77
2022/02/02 06:22:15;;;;;;;;;2.25;2.00;;;;;10.91;76.96;101826.75;5088835;27;45974;-76
2022/02/02 06:25:10;;;;;;;;;4.00;3.00;;;;;11.08;77.06;101847.81;5097057;27;45406;-76
2022/02/02 06:27:37;;;;;;;;;2.25;2.25;;;;;11.02;76.92;101842.22;5091078;27;45463;-76
2022/02/02 06:30:05;;;;;;;;;5.25;3.25;;;;;10.54;76.81;101753.88;5089904;27;46039;-76
2022/02/02 06:32:52;;;;;;;;;2.00;2.00;;;;;11.14;76.75;101847.22;5087480;27;45775;-75
2022/02/02 06:35:19;;;;;;;;;6.75;3.00;;;;;10.48;76.55;101727.28;5097228;27;45192;-75
2022/02/02 06:37:46;;;;;;;;;4.50;3.75;;;;;10.40;76.48;101718.13;5104301;27;45416;-77
2022/02/02 06:40:13;;;;;;;;;6.25;4.00;;;;;10.39;76.72;101725.09;5106143;27;45401;-75
2022/02/02 06:42:39;;;;;;;;;4.25;4.00;;;;;10.93;76.62;101815.47;5103715;27;45321;-76
2022/02/02 06:45:06;;;;;;;;;5.25;3.00;;;;;11.12;76.76;101840.97;5098762;27;45514;-75
2022/02/02 06:47:34;;;;;;;;;3.00;2.00;;;;;11.16;76.79;101868.34;5106515;27;46519;-76
2022/02/02 06:50:10;;;;;;;;;3.00;2.25;;;;;10.53;76.53;101752.97;5104626;27;45566;-76
2022/02/02 06:52:45;;;;;;;;;2.00;2.00;;;;;11.00;76.69;101843.91;5095841;27;45785;-79
2022/02/02 06:55:26;;;;;;;;;4.75;3.00;;;;;10.90;76.89;101825.84;5113142;27;45792;-81
2022/02/02 06:58:04;;;;;;;;;2.00;2.00;;;;;10.87;76.84;101822.16;5111933;27;46072;-77
2022/02/02 07:00:53;;;;;;;;;2.50;2.50;;;;;10.41;77.33;101748.84;5112326;27;45525;-75
2022/02/02 07:03:38;;;;;;;;;9.00;8.00;;;;;10.68;77.27;101786.13;5113231;27;45216;-75
2022/02/02 07:06:25;;;;;;;;;5.50;5.50;;;;;10.40;77.18;101755.81;5112965;27;45010;-77
2022/02/02 07:09:13;;;;;;;;;7.25;5.50;;;;;10.41;77.40;101761.97;5102612;27;45697;-75
2022/02/02 07:15:14;;;;;;;;;4.00;3.00;;;;;10.91;77.48;101858.31;5106856;27;45318;-76
2022/02/02 07:17:55;;;;;;;;;5.25;4.50;;;;;10.80;77.53;101841.97;5101860;27;45579;-81
2022/02/02 07:28:29;;;;;;;;;5.75;5.00;;;;;10.71;77.94;101813.47;5078164;27;46013;-76
2022/02/02 07:31:07;;;;;;;;;4.00;4.00;;;;;10.96;77.69;101870.84;5111399;27;45299;-77
2022/02/02 07:33:39;;;;;;;;;4.00;3.00;;;;;10.97;77.88;101890.19;5114519;27;45276;-81
2022/02/02 07:36:17;;;;;;;;;5.25;4.25;;;;;10.39;77.58;101795.13;5112969;27;45133;-76
2022/02/02 07:39:04;;;;;;;;;4.50;4.25;;;;;11.04;78.02;101909.00;5112740;27;45089;-81
2022/02/02 07:41:33;;;;;;;;;4.00;4.00;;;;;11.06;78.03;101909.97;5093913;27;46398;-76
2022/02/02 07:44:07;;;;;;;;;2.75;2.75;;;;;10.64;78.03;101827.16;5093746;27;45070;-81
2022/02/02 07:46:33;;;;;;;;;4.50;3.00;;;;;10.88;78.02;101874.81;5092118;27;44928;-77
2022/02/02 07:48:59;;;;;;;;;3.00;3.00;;;;;10.74;78.12;101846.94;5100706;27;45378;-79
2022/02/02 07:51:27;;;;;;;;;7.00;5.00;;;;;11.05;78.17;101891.47;5108817;27;47596;-78
2022/02/02 07:53:54;;;;;;;;;3.50;3.50;;;;;10.96;78.04;101883.13;5093854;27;45408;-81
2022/02/02 07:56:28;;;;;;;;;2.50;2.25;;;;;11.18;77.88;101916.66;5093396;27;44970;-82
2022/02/02 08:01:58;;;;;;;;;3.25;3.25;;;;;10.87;77.66;101865.13;5068464;28;46294;-81
2022/02/02 08:04:28;;;;;;;;;3.75;3.00;;;;;11.06;77.77;101898.53;5100150;27;45356;-84
2022/02/02 08:06:55;;;;;;;;;4.00;4.00;;;;;11.19;77.62;101932.56;5113644;27;45109;-82
2022/02/02 08:11:57;;;;;;;;;4.75;4.00;;;;;10.97;78.12;101879.66;5110548;27;45194;-82
2022/02/02 08:14:23;;;;;;;;;4.00;3.00;;;;;11.22;77.59;101921.25;5110926;27;45669;-81
2022/02/02 08:16:49;;;;;;;;;4.00;4.00;;;;;10.98;78.06;101878.81;5109334;27;45095;-87
2022/02/02 08:19:16;;;;;;;;;4.00;3.75;;;;;11.18;77.82;101906.13;5108965;27;45145;-82
2022/02/02 08:21:43;;;;;;;;;4.25;4.25;;;;;11.21;77.72;101916.84;5109784;27;46187;-85
2022/02/02 08:24:09;;;;;;;;;3.75;3.00;;;;;11.23;77.59;101913.47;5109549;27;45234;-81
2022/02/02 08:26:35;;;;;;;;;5.00;4.00;;;;;10.97;77.51;101861.25;5105427;27;45418;-87
2022/02/02 08:29:00;;;;;;;;;3.00;3.00;;;;;11.34;77.31;101922.81;5098695;27;45261;-88
2022/02/02 08:31:27;;;;;;;;;3.75;3.00;;;;;11.02;77.10;101860.63;5107157;27;47269;-82
2022/02/02 08:33:57;;;;;;;;;3.50;3.50;;;;;11.27;77.09;101907.50;5108519;27;46352;-84
2022/02/02 08:36:22;;;;;;;;;5.00;4.00;;;;;11.35;77.05;101918.44;5099766;27;45320;-83
2022/02/02 08:39:10;;;;;;;;;4.25;3.75;;;;;11.00;77.07;101858.78;5109155;27;45497;-90
2022/02/02 08:41:40;;;;;;;;;3.00;3.00;;;;;11.40;76.86;101926.56;5104683;27;45666;-84
2022/02/02 08:44:10;;;;;;;;;3.00;2.25;;;;;11.39;77.18;101908.97;5109387;27;45495;-81
2022/02/02 08:46:40;;;;;;;;;3.00;3.00;;;;;11.21;77.17;101875.63;5099301;27;45423;-77
2022/02/02 08:49:10;;;;;;;;;3.50;2.50;;;;;11.31;76.42;101884.88;5096934;27;45786;-76
2022/02/02 08:51:41;;;;;;;;;3.50;3.50;;;;;10.93;76.33;101818.09;5104651;27;45280;-77
2022/02/02 08:54:15;;;;;;;;;5.25;4.25;;;;;11.24;76.45;101861.75;5110024;27;45112;-79
2022/02/02 09:01:53;;;;;;;;;3.00;2.75;;;;;11.44;75.83;101871.50;5107728;27;45247;-76
2022/02/02 09:07:04;;;;;;;;;2.25;2.25;;;;;11.28;75.76;101811.03;5111743;27;45220;-76
2022/02/02 09:20:40;;;;;;;;;1.75;1.75;;;;;11.50;74.87;101828.78;5108329;27;45687;-76
2022/02/02 09:36:32;;;;;;;;;2.00;2.00;;;;;12.24;74.13;101892.03;5104430;27;45221;-78
2022/02/02 09:39:01;;;;;;;;;3.00;2.00;;;;;11.87;73.63;101819.22;5107745;27;45125;-77
2022/02/02 09:41:42;;;;;;;;;4.00;3.00;;;;;12.13;73.35;101851.13;5110493;27;45362;-76
2022/02/02 09:44:10;;;;;;;;;1.75;1.50;;;;;12.14;73.15;101863.47;5112073;27;45190;-77
2022/02/02 09:46:50;;;;;;;;;3.00;2.25;;;;;12.08;73.11;101837.72;5111574;27;45148;-76
2022/02/02 09:49:31;;;;;;;;;2.50;2.00;;;;;12.19;72.99;101861.94;5111923;27;45256;-78
2022/02/02 09:52:16;;;;;;;;;1.25;1.00;;;;;11.91;73.28;101825.50;5111981;27;45244;-77
2022/02/02 09:57:34;;;;;;;;;1.00;1.00;;;;;12.39;73.50;101934.03;5109457;27;45165;-78
2022/02/02 10:00:37;;;;;;;;;1.75;1.50;;;;;12.02;72.92;101876.97;5108747;27;45155;-77
2022/02/02 10:06:07;;;;;;;;;1.00;1.00;;;;;11.91;73.01;101865.00;5091408;27;45166;-77
2022/02/02 10:11:49;;;;;;;;;2.00;2.00;;;;;12.47;73.00;101952.84;5111008;27;45114;-76
2022/02/02 10:14:26;;;;;;;;;2.00;1.00;;;;;12.53;72.87;101959.28;5111094;27;45229;-76
2022/02/02 10:16:52;;;;;;;;;2.00;1.00;;;;;12.53;73.17;101932.03;5106748;27;47325;-76
2022/02/02 10:19:25;;;;;;;;;2.00;1.25;;;;;12.45;72.30;101913.19;5105255;27;45095;-76
2022/02/02 10:21:52;;;;;;;;;1.00;1.00;;;;;12.18;72.29;101869.78;5108252;27;45510;-84
2022/02/02 10:24:37;;;;;;;;;0.50;0.00;;;;;12.18;72.49;101856.59;5102596;27;45314;-76
2022/02/02 10:27:03;;;;;;;;;0.50;0.50;;;;;11.87;72.07;101820.91;5105720;27;45838;-78
2022/02/02 10:29:37;;;;;;;;;1.00;1.00;;;;;12.10;72.60;101862.41;5101022;27;45173;-77
2022/02/02 10:32:02;;;;;;;;;0.75;0.00;;;;;11.92;72.64;101835.22;5109190;27;45388;-76
2022/02/02 10:34:28;;;;;;;;;1.00;1.00;;;;;12.00;72.26;101844.38;5110116;27;45122;-77
2022/02/02 10:37:19;;;;;;;;;0.00;0.00;;;;;12.67;72.33;101959.94;5109729;27;45944;-77
2022/02/02 10:39:47;;;;;;;;;2.00;1.50;;;;;12.19;72.14;101882.13;5110080;27;45214;-77
2022/02/02 10:42:12;;;;;;;;;1.00;1.00;;;;;12.24;72.06;101901.69;5107454;27;45134;-76
2022/02/02 10:44:42;;;;;;;;;1.75;1.50;;;;;12.38;72.21;101927.84;5108134;27;45158;-76
2022/02/02 10:47:26;;;;;;;;;2.00;1.75;;;;;11.80;72.43;101840.78;5099834;27;45231;-75
2022/02/02 10:50:05;;;;;;;;;4.00;4.00;;;;;11.74;72.24;101851.03;5109228;27;45770;-77
2022/02/02 10:53:01;;;;;;;;;4.00;4.00;;;;;11.82;72.37;101872.47;5109900;27;45224;-76
2022/02/02 10:58:23;;;;;;;;;5.25;5.25;;;;;12.11;72.52;101909.00;5097032;27;45649;-77
2022/02/02 11:08:46;;;;;;;;;7.25;6.50;;;;;11.88;71.74;101831.53;5088590;27;45397;-76
2022/02/02 11:11:11;;;;;;;;;5.75;4.75;;;;;12.10;71.51;101850.97;5108953;27;45606;-78
2022/02/02 11:13:39;;;;;;;;;3.75;3.50;;;;;12.29;71.32;101886.97;5107598;27;45216;-79
2022/02/02 11:16:07;;;;;;;;;4.00;3.50;;;;;12.11;71.47;101835.22;5101234;27;45496;-78
2022/02/02 11:18:37;;;;;;;;;3.25;3.25;;;;;12.18;71.02;101856.59;5113401;27;45895;-77
2022/02/02 11:21:10;;;;;;;;;1.75;1.75;;;;;12.58;71.07;101941.94;5099361;27;45361;-80
2022/02/02 11:23:48;;;;;;;;;3.00;3.00;;;;;12.75;71.84;101958.53;5096316;27;45281;-81
2022/02/02 11:26:34;;;;;;;;;2.00;2.00;;;;;12.32;71.54;101852.88;5104475;27;45268;-81
2022/02/02 11:28:59;;;;;;;;;2.50;1.75;;;;;12.25;70.82;101841.13;5094492;27;45513;-77
2022/02/02 11:31:25;;;;;;;;;3.75;2.75;;;;;12.33;71.01;101870.47;5095857;27;45423;-77
2022/02/02 11:33:52;;;;;;;;;1.00;1.00;;;;;12.90;70.78;101964.47;5095856;27;45883;-78
2022/02/02 11:36:25;;;;;;;;;2.00;1.00;;;;;12.32;70.83;101859.03;5092337;27;45565;-77
2022/02/02 11:38:54;;;;;;;;;1.00;1.00;;;;;12.31;71.05;101864.22;5086622;27;46127;-78
2022/02/02 11:41:39;;;;;;;;;1.00;1.00;;;;;12.89;70.69;101943.31;5093975;27;45475;-81
2022/02/02 11:44:24;;;;;;;;;1.00;1.00;;;;;12.47;70.44;101879.03;5113186;27;44940;-79
2022/02/02 11:49:59;;;;;;;;;2.50;2.50;;;;;12.89;70.44;101953.88;5113848;27;45700;-81
2022/02/02 11:52:37;;;;;;;;;2.25;2.00;;;;;12.39;70.16;101855.81;5112979;27;45656;-77
2022/02/02 11:55:10;;;;;;;;;0.75;0.75;;;;;12.41;70.04;101855.88;5098882;27;45483;-77
2022/02/02 11:57:54;;;;;;;;;1.00;1.00;;;;;12.83;69.62;101943.06;5100105;27;45316;-77
2022/02/02 12:08:31;;;;;;;;;1.50;1.50;;;;;12.33;70.04;101870.47;5112635;27;45127;-76
2022/02/02 13:00:12;;;;;;;;;0.00;0.00;;;;;12.73;68.49;101854.69;5109052;27;45143;-78
2022/02/02 13:02:40;;;;;;;;;0.25;0.25;;;;;12.45;67.95;101802.47;5106227;27;45224;-78
2022/02/02 13:05:08;;;;;;;;;0.00;0.00;;;;;13.22;68.44;101927.19;5111600;27;46016;-77
2022/02/02 13:07:36;;;;;;;;;1.00;1.00;;;;;13.24;67.53;101922.88;5112503;27;45613;-81
2022/02/02 13:10:06;;;;;;;;;1.00;1.00;;;;;12.74;67.84;101838.03;5112160;27;45181;-78
2022/02/02 13:12:34;;;;;;;;;1.50;1.50;;;;;13.37;67.76;101922.56;5108158;27;45261;-77
2022/02/02 13:15:18;;;;;;;;;1.00;1.00;;;;;13.25;67.63;101888.63;5110750;27;45913;-78
2022/02/02 13:17:54;;;;;;;;;0.50;0.50;;;;;13.52;67.57;101906.44;5091967;28;45055;-76
2022/02/02 13:20:34;;;;;;;;;1.00;1.00;;;;;13.60;67.09;101920.88;5093659;27;45063;-76
2022/02/02 13:23:23;;;;;;;;;0.00;0.00;;;;;12.98;66.82;101800.31;5092181;27;45125;-76
2022/02/02 13:25:59;;;;;;;;;1.00;1.00;;;;;13.01;66.45;101790.81;5121345;27;46958;-78
2022/02/02 14:33:21;;;;;;;;;1.00;1.00;;;;;14.64;59.01;101870.31;5103590;27;45694;-81
2022/02/02 14:35:48;;;;;;;;;0.00;0.00;;;;;14.20;58.94;101805.16;5108492;27;45451;-84
2022/02/02 14:38:16;;;;;;;;;1.50;1.00;;;;;14.38;59.12;101860.47;5116472;27;45111;-84
2022/02/02 14:43:16;;;;;;;;;1.00;1.00;;;;;14.31;59.44;101888.44;5132292;27;46080;-84
2022/02/02 14:45:47;;;;;;;;;0.00;0.00;;;;;14.07;59.63;101879.56;5122090;27;45151;-83
2022/02/02 14:48:28;;;;;;;;;0.00;0.00;;;;;13.83;59.88;101877.75;5115537;27;44984;-84
2022/02/02 14:53:34;;;;;;;;;0.00;0.00;;;;;13.64;60.78;101881.44;5094016;27;44863;-83
2022/02/02 15:08:14;;;;;;;;;1.00;1.00;;;;;13.12;60.41;101899.47;5109976;27;45063;-80
2022/02/02 15:28:18;;;;;;;;;0.00;0.00;;;;;12.40;62.44;101880.44;5075829;27;45382;-80
2022/02/02 15:30:53;;;;;;;;;5.00;5.00;;;;;12.18;62.37;101839.06;5093578;27;45498;-76
2022/02/02 15:33:24;;;;;;;;;3.50;3.00;;;;;12.53;62.56;101911.81;5096162;27;45555;-83
2022/02/02 15:36:00;;;;;;;;;1.75;1.50;;;;;11.93;62.42;101826.50;5096285;27;45897;-79
2022/02/02 15:38:28;;;;;;;;;4.00;3.00;;;;;12.13;62.58;101866.94;5096301;27;45389;-83
2022/02/02 15:41:04;;;;;;;;;5.25;4.00;;;;;12.36;63.01;101918.06;5096435;27;45271;-75
2022/02/02 15:43:39;;;;;;;;;4.25;3.00;;;;;12.14;62.96;101879.28;5095900;27;45417;-75
2022/02/02 16:02:20;;;;;;;;;2.00;1.50;;;;;12.28;63.59;101914.19;5091528;27;45486;-76
2022/02/02 16:04:46;;;;;;;;;1.25;1.25;;;;;11.80;63.68;101855.69;5091465;27;45742;-79
2022/02/02 16:07:21;;;;;;;;;2.00;2.00;;;;;11.80;63.62;101851.31;5092914;27;45334;-76
2022/02/02 16:09:52;;;;;;;;;1.00;1.00;;;;;11.29;63.38;101771.66;5091978;27;45564;-76
2022/02/02 16:12:31;;;;;;;;;2.00;2.00;;;;;11.93;63.25;101891.44;5094846;27;45616;-77
2022/02/02 16:15:16;;;;;;;;;3.00;2.75;;;;;12.10;63.25;101928.28;5095703;27;46671;-76
2022/02/02 16:39:06;;;;;;;;;3.75;3.75;;;;;11.28;63.31;101821.56;5108543;27;45298;-76
2022/02/02 16:44:15;;;;;;;;;3.50;3.00;;;;;11.10;63.63;101788.28;5102673;27;45235;-76
2022/02/02 16:46:41;;;;;;;;;3.00;3.00;;;;;11.11;63.53;101804.97;5102349;27;45410;-77
2022/02/02 16:49:08;;;;;;;;;4.25;4.25;;;;;11.13;64.11;101811.19;5107292;27;45070;-78
2022/02/02 16:51:33;;;;;;;;;6.00;5.00;;;;;11.56;63.63;101872.09;5108840;27;45232;-76
2022/02/02 16:54:01;;;;;;;;;4.25;3.25;;;;;10.80;63.46;101742.94;5107661;27;46000;-80
2022/02/02 16:56:43;;;;;;;;;3.00;3.00;;;;;11.03;63.44;101794.06;5104079;27;45885;-77
2022/02/02 17:32:00;;;;;;;;;22.25;21.75;;;;;11.49;63.72;101854.22;5107383;27;45510;-77
2022/02/02 17:34:38;;;;;;;;;17.25;16.25;;;;;11.72;64.03;101886.91;5112595;27;45061;-79
2022/02/02 17:39:39;;;;;;;;;9.50;8.25;;;;;10.96;63.74;101785.78;5103441;27;45651;-75
2022/02/02 17:42:28;;;;;;;;;7.25;7.25;;;;;10.90;63.68;101769.72;5095691;27;45488;-75
2022/02/02 18:12:16;;;;;;;;;13.00;12.50;;;;;11.49;63.75;101870.00;5106117;27;45375;-78
2022/02/02 18:20:06;;;;;;;;;15.75;15.00;;;;;11.45;63.72;101877.69;5079431;27;45543;-79
2022/02/02 18:22:38;;;;;;;;;15.50;15.50;;;;;11.57;64.10;101900.22;5090079;27;46329;-78
2022/02/02 18:25:22;;;;;;;;;16.00;15.00;;;;;11.58;63.83;101893.25;5088839;27;45902;-79
2022/02/02 18:27:57;;;;;;;;;13.75;13.25;;;;;11.59;63.65;101887.16;5085546;27;45402;-86
2022/02/02 18:54:01;;;;;;;;;11.75;11.50;;;;;11.53;62.76;101890.41;5095561;27;45383;-78
2022/02/02 18:55:55;;;;;;;;;11.25;10.75;;;;;11.42;63.18;101874.88;5087472;27;45326;-80
2022/02/02 19:56:42;;;;;;;;;5.75;5.50;;;;;10.88;62.85;101831.84;5098706;27;45163;-78
2022/02/02 20:11:39;;;;;;;;;8.00;6.50;;;;;11.09;62.11;101865.41;5087382;27;45785;-83
2022/02/02 20:14:05;;;;;;;;;10.00;10.00;;;;;11.29;62.20;101908.50;5081069;27;46497;-84
2022/02/02 20:16:30;;;;;;;;;11.25;11.00;;;;;11.27;62.30;101910.13;5085692;27;45610;-78
2022/02/02 20:18:58;;;;;;;;;7.50;7.25;;;;;11.26;62.35;101907.44;5085861;27;45593;-80
2022/02/02 20:21:29;;;;;;;;;4.25;4.25;;;;;11.22;62.09;101906.38;5089779;27;45615;-81
2022/02/02 20:23:55;;;;;;;;;8.25;7.00;;;;;11.06;62.18;101885.38;5082136;27;45942;-82
2022/02/02 20:26:23;;;;;;;;;9.75;7.50;;;;;11.02;62.60;101881.69;5085235;27;45511;-85
2022/02/02 20:28:50;;;;;;;;;6.25;5.25;;;;;11.20;62.38;101908.03;5086074;27;45500;-78
2022/02/02 20:31:16;;;;;;;;;5.50;5.00;;;;;11.29;62.64;101924.31;5089645;27;45976;-79
2022/02/02 20:33:42;;;;;;;;;6.25;6.00;;;;;10.91;62.51;101850.41;5080004;27;45795;-80
2022/02/02 20:36:09;;;;;;;;;8.25;8.25;;;;;11.32;62.51;101920.91;5083261;27;45989;-83
2022/02/02 20:38:35;;;;;;;;;11.00;11.00;;;;;11.33;62.54;101928.00;5080666;27;45554;-78
2022/02/02 20:41:02;;;;;;;;;13.00;11.75;;;;;11.33;62.63;101922.72;5080439;27;47156;-79
2022/02/02 20:43:45;;;;;;;;;12.00;12.00;;;;;10.93;62.83;101840.88;5075021;27;45712;-78
2022/02/02 21:03:14;;;;;;;;;10.00;7.50;;;;;10.70;63.48;101814.31;5078562;27;46137;-80
2022/02/02 21:10:29;;;;;;;;;9.75;9.50;;;;;10.84;63.97;101828.16;5080027;27;45712;-77
2022/02/02 21:15:40;;;;;;;;;11.50;11.50;;;;;11.17;64.07;101886.81;5078794;27;46239;-77
2022/02/02 21:18:10;;;;;;;;;12.00;11.00;;;;;10.69;64.44;101795.81;5080527;27;45898;-83
2022/02/02 21:20:47;;;;;;;;;9.00;9.00;;;;;11.34;64.78;101901.75;5080375;27;45638;-83
2022/02/02 21:28:31;;;;;;;;;11.25;10.75;;;;;10.97;65.20;101840.19;5079276;27;46450;-79
2022/02/02 21:30:57;;;;;;;;;13.25;13.25;;;;;10.67;65.08;101787.84;5079297;27;45895;-80
2022/02/02 21:33:22;;;;;;;;;11.50;10.50;;;;;10.41;65.27;101735.69;5074376;27;46277;-80
2022/02/02 21:35:50;;;;;;;;;12.75;12.75;;;;;11.14;65.55;101860.38;5078418;27;46071;-78
2022/02/02 21:38:28;;;;;;;;;10.75;10.50;;;;;10.43;65.75;101732.31;5080076;27;45446;-80
2022/02/02 21:40:57;;;;;;;;;12.50;11.00;;;;;10.70;65.57;101798.53;5090545;27;45127;-78
2022/02/02 21:43:24;;;;;;;;;10.25;10.25;;;;;10.54;65.78;101769.63;5073242;27;45799;-80
2022/02/02 21:45:49;;;;;;;;;8.75;8.75;;;;;10.50;65.78;101767.72;5077766;27;45789;-80
2022/02/02 21:48:15;;;;;;;;;13.00;12.25;;;;;10.73;65.79;101803.94;5084245;27;46414;-80
2022/02/02 21:50:49;;;;;;;;;11.50;11.50;;;;;11.03;65.91;101851.00;5078327;27;45492;-77
2022/02/02 21:53:15;;;;;;;;;10.25;9.00;;;;;10.67;66.12;101802.72;5073688;27;46345;-82
2022/02/02 21:55:41;;;;;;;;;10.00;9.00;;;;;10.73;66.05;101806.56;5078526;27;46043;-76
2022/02/02 21:58:07;;;;;;;;;13.25;12.25;;;;;10.55;65.80;101780.25;5080251;27;45882;-76
2022/02/02 22:00:32;;;;;;;;;11.25;10.75;;;;;10.90;66.10;101835.47;5083751;27;45670;-79
2022/02/02 22:02:58;;;;;;;;;6.75;6.50;;;;;10.52;65.76;101772.19;5101219;27;45806;-83
2022/02/02 22:05:23;;;;;;;;;7.00;6.50;;;;;10.94;65.85;101847.94;5089133;27;46007;-82
2022/02/02 22:07:49;;;;;;;;;10.00;10.00;;;;;11.03;66.08;101851.94;5088245;27;45733;-78
2022/02/02 22:10:16;;;;;;;;;6.25;5.75;;;;;11.15;66.08;101872.69;5081541;27;45496;-82
2022/02/02 22:12:42;;;;;;;;;11.00;10.00;;;;;11.01;66.35;101844.78;5087712;27;46208;-83
2022/02/02 22:15:12;;;;;;;;;10.00;8.75;;;;;11.07;66.13;101864.41;5095263;27;45522;-82
2022/02/02 22:17:37;;;;;;;;;9.00;8.75;;;;;10.65;65.96;101788.63;5094541;27;47219;-80
2022/02/02 22:20:07;;;;;;;;;10.50;10.00;;;;;10.87;65.93;101830.94;5090432;27;45282;-77
2022/02/02 22:22:33;;;;;;;;;5.75;5.75;;;;;10.91;65.09;101835.53;5081550;27;45496;-77
2022/02/02 22:24:59;;;;;;;;;5.50;5.25;;;;;10.45;65.22;101764.84;5091414;27;45837;-77
2022/02/02 22:27:24;;;;;;;;;6.75;5.75;;;;;10.90;64.84;101830.22;5096347;27;45652;-77
2022/02/02 22:29:50;;;;;;;;;8.25;6.50;;;;;11.08;64.98;101870.56;5092537;27;45302;-76
2022/02/02 22:32:15;;;;;;;;;8.75;7.25;;;;;10.63;65.03;101799.03;5090962;27;45569;-77
2022/02/02 22:34:43;;;;;;;;;6.25;6.25;;;;;10.59;64.95;101794.47;5093725;27;45550;-76
2022/02/02 22:37:10;;;;;;;;;9.00;7.50;;;;;10.97;64.84;101880.56;5091685;27;45460;-75
2022/02/02 22:39:40;;;;;;;;;6.50;6.00;;;;;10.16;64.71;101729.16;5091658;27;45632;-76
2022/02/02 22:42:06;;;;;;;;;6.00;5.00;;;;;10.71;64.57;101831.00;5093622;27;45772;-76
2022/02/02 22:44:31;;;;;;;;;5.50;5.50;;;;;10.57;64.95;101802.25;5096241;27;45401;-76
2022/02/02 22:47:03;;;;;;;;;5.50;4.50;;;;;10.75;64.86;101831.22;5092785;27;45543;-78